sensor_id;sensor_type;location;lat;lon;timestamp;P1;durP1;ratioP1;P2;durP2;ratioP2
11486;SDS011;10510;47.942;9.442;2023-04-03T00:00:34;16.67;;;6.72;;
11486;SDS011;10510;47.942;9.442;2023-04-03T00:02:34;10.45;;;6.82;;
11486;SDS011;10510;47.942;9.442;2023-04-03T00:04:34;12.63;;;6.38;;
11486;SDS011;10510;47.942;9.442;2023-04-03T00:06:35;11.27;;;7.28;;
11486;SDS011;10510;47.942;9.442;2023-04-03T00:08:35;14.15;;;5.93;;
11486;SDS011;10510;47.942;9.442;2023-04-03T00:10:36;10.50;;;6.22;;
11486;SDS011;10510;47.942;9.442;2023-04-03T00:12:37;10.38;;;6.10;;
11486;SDS011;10510;47.942;9.442;2023-04-03T00:14:37;10.23;;;5.95;;
11486;SDS011;10510;47.942;9.442;2023-04-03T00:16:37;13.00;;;6.93;;
11486;SDS011;10510;47.942;9.442;2023-04-03T00:18:38;14.30;;;6.40;;
11486;SDS011;10510;47.942;9.442;2023-04-03T00:20:39;12.43;;;6.50;;
11486;SDS011;10510;47.942;9.442;2023-04-03T00:22:40;10.05;;;6.18;;
11486;SDS011;10510;47.942;9.442;2023-04-03T00:24:40;12.13;;;6.38;;
11486;SDS011;10510;47.942;9.442;2023-04-03T00:26:40;9.50;;;5.82;;
11486;SDS011;10510;47.942;9.442;2023-04-03T00:28:40;9.20;;;5.63;;
11486;SDS011;10510;47.942;9.442;2023-04-03T00:30:41;9.85;;;6.30;;
11486;SDS011;10510;47.942;9.442;2023-04-03T00:32:41;12.75;;;6.32;;
11486;SDS011;10510;47.942;9.442;2023-04-03T00:34:42;12.20;;;6.13;;
11486;SDS011;10510;47.942;9.442;2023-04-03T00:36:42;10.15;;;5.82;;
11486;SDS011;10510;47.942;9.442;2023-04-03T00:38:42;13.55;;;6.65;;
11486;SDS011;10510;47.942;9.442;2023-04-03T00:40:44;11.98;;;6.05;;
11486;SDS011;10510;47.942;9.442;2023-04-03T00:42:46;10.90;;;6.32;;
11486;SDS011;10510;47.942;9.442;2023-04-03T00:46:48;8.97;;;6.07;;
11486;SDS011;10510;47.942;9.442;2023-04-03T00:48:48;13.20;;;5.85;;
11486;SDS011;10510;47.942;9.442;2023-04-03T00:50:49;9.95;;;5.22;;
11486;SDS011;10510;47.942;9.442;2023-04-03T00:52:51;10.00;;;5.60;;
11486;SDS011;10510;47.942;9.442;2023-04-03T00:54:53;9.82;;;6.00;;
11486;SDS011;10510;47.942;9.442;2023-04-03T00:56:56;9.43;;;5.88;;
11486;SDS011;10510;47.942;9.442;2023-04-03T00:59:02;9.73;;;5.43;;
11486;SDS011;10510;47.942;9.442;2023-04-03T01:01:07;11.48;;;5.93;;
11486;SDS011;10510;47.942;9.442;2023-04-03T01:03:10;8.23;;;5.40;;
11486;SDS011;10510;47.942;9.442;2023-04-03T01:05:11;9.82;;;6.15;;
11486;SDS011;10510;47.942;9.442;2023-04-03T01:09:15;9.25;;;5.72;;
11486;SDS011;10510;47.942;9.442;2023-04-03T01:11:15;10.43;;;6.00;;
11486;SDS011;10510;47.942;9.442;2023-04-03T01:13:20;11.80;;;7.35;;
11486;SDS011;10510;47.942;9.442;2023-04-03T01:15:28;10.18;;;5.88;;
11486;SDS011;10510;47.942;9.442;2023-04-03T01:17:36;10.35;;;6.28;;
11486;SDS011;10510;47.942;9.442;2023-04-03T01:19:41;11.88;;;7.00;;
11486;SDS011;10510;47.942;9.442;2023-04-03T01:22:02;12.77;;;7.45;;
11486;SDS011;10510;47.942;9.442;2023-04-03T01:26:31;15.50;;;7.03;;
11486;SDS011;10510;47.942;9.442;2023-04-03T01:28:33;14.57;;;7.35;;
11486;SDS011;10510;47.942;9.442;2023-04-03T01:30:36;11.93;;;7.10;;
11486;SDS011;10510;47.942;9.442;2023-04-03T01:32:43;10.82;;;6.82;;
11486;SDS011;10510;47.942;9.442;2023-04-03T01:34:43;13.70;;;7.68;;
11486;SDS011;10510;47.942;9.442;2023-04-03T01:36:43;12.10;;;6.30;;
11486;SDS011;10510;47.942;9.442;2023-04-03T01:38:43;14.35;;;7.70;;
11486;SDS011;10510;47.942;9.442;2023-04-03T01:40:44;14.02;;;7.50;;
11486;SDS011;10510;47.942;9.442;2023-04-03T01:42:44;13.15;;;7.05;;
11486;SDS011;10510;47.942;9.442;2023-04-03T01:44:45;11.93;;;7.13;;
11486;SDS011;10510;47.942;9.442;2023-04-03T01:46:46;12.20;;;7.53;;
11486;SDS011;10510;47.942;9.442;2023-04-03T01:48:46;11.93;;;6.85;;
11486;SDS011;10510;47.942;9.442;2023-04-03T01:50:47;13.95;;;7.55;;
11486;SDS011;10510;47.942;9.442;2023-04-03T01:52:47;11.93;;;7.45;;
11486;SDS011;10510;47.942;9.442;2023-04-03T01:54:47;15.40;;;7.63;;
11486;SDS011;10510;47.942;9.442;2023-04-03T01:56:48;13.65;;;7.05;;
11486;SDS011;10510;47.942;9.442;2023-04-03T01:58:48;15.13;;;8.18;;
11486;SDS011;10510;47.942;9.442;2023-04-03T02:00:48;13.55;;;7.40;;
11486;SDS011;10510;47.942;9.442;2023-04-03T02:02:48;13.85;;;7.40;;
11486;SDS011;10510;47.942;9.442;2023-04-03T02:04:49;13.93;;;8.00;;
11486;SDS011;10510;47.942;9.442;2023-04-03T02:06:49;13.27;;;7.20;;
11486;SDS011;10510;47.942;9.442;2023-04-03T02:08:50;13.07;;;8.05;;
11486;SDS011;10510;47.942;9.442;2023-04-03T02:10:50;16.17;;;7.70;;
11486;SDS011;10510;47.942;9.442;2023-04-03T02:12:51;12.75;;;6.68;;
11486;SDS011;10510;47.942;9.442;2023-04-03T02:14:51;10.85;;;6.05;;
11486;SDS011;10510;47.942;9.442;2023-04-03T02:16:52;12.48;;;7.35;;
11486;SDS011;10510;47.942;9.442;2023-04-03T02:18:52;11.02;;;6.78;;
11486;SDS011;10510;47.942;9.442;2023-04-03T02:20:52;11.45;;;6.40;;
11486;SDS011;10510;47.942;9.442;2023-04-03T02:22:52;12.68;;;6.55;;
11486;SDS011;10510;47.942;9.442;2023-04-03T02:24:53;12.25;;;6.78;;
11486;SDS011;10510;47.942;9.442;2023-04-03T02:26:53;11.93;;;6.72;;
11486;SDS011;10510;47.942;9.442;2023-04-03T02:28:53;9.48;;;5.97;;
11486;SDS011;10510;47.942;9.442;2023-04-03T02:30:53;10.95;;;6.38;;
11486;SDS011;10510;47.942;9.442;2023-04-03T02:32:54;11.02;;;6.40;;
11486;SDS011;10510;47.942;9.442;2023-04-03T02:34:54;9.40;;;5.82;;
11486;SDS011;10510;47.942;9.442;2023-04-03T02:36:54;9.73;;;5.72;;
11486;SDS011;10510;47.942;9.442;2023-04-03T02:38:55;10.15;;;6.10;;
11486;SDS011;10510;47.942;9.442;2023-04-03T02:41:08;11.30;;;6.38;;
11486;SDS011;10510;47.942;9.442;2023-04-03T02:43:10;10.65;;;6.55;;
11486;SDS011;10510;47.942;9.442;2023-04-03T02:45:11;10.23;;;5.55;;
11486;SDS011;10510;47.942;9.442;2023-04-03T02:47:11;9.07;;;5.13;;
11486;SDS011;10510;47.942;9.442;2023-04-03T02:49:11;10.75;;;6.05;;
11486;SDS011;10510;47.942;9.442;2023-04-03T02:51:12;12.40;;;6.50;;
11486;SDS011;10510;47.942;9.442;2023-04-03T02:53:12;11.20;;;6.40;;
11486;SDS011;10510;47.942;9.442;2023-04-03T02:55:13;10.13;;;5.68;;
11486;SDS011;10510;47.942;9.442;2023-04-03T02:57:15;9.75;;;5.55;;
11486;SDS011;10510;47.942;9.442;2023-04-03T02:59:16;10.55;;;5.55;;
11486;SDS011;10510;47.942;9.442;2023-04-03T03:01:16;9.68;;;5.63;;
11486;SDS011;10510;47.942;9.442;2023-04-03T03:03:16;10.68;;;5.85;;
11486;SDS011;10510;47.942;9.442;2023-04-03T03:05:17;8.60;;;5.43;;
11486;SDS011;10510;47.942;9.442;2023-04-03T03:07:17;10.38;;;5.32;;
11486;SDS011;10510;47.942;9.442;2023-04-03T03:09:17;9.60;;;4.70;;
11486;SDS011;10510;47.942;9.442;2023-04-03T03:11:18;6.93;;;4.30;;
11486;SDS011;10510;47.942;9.442;2023-04-03T03:13:18;7.22;;;4.30;;
11486;SDS011;10510;47.942;9.442;2023-04-03T03:15:18;7.68;;;4.18;;
11486;SDS011;10510;47.942;9.442;2023-04-03T03:17:19;7.35;;;4.20;;
11486;SDS011;10510;47.942;9.442;2023-04-03T03:19:19;7.38;;;4.32;;
11486;SDS011;10510;47.942;9.442;2023-04-03T03:21:20;7.38;;;4.43;;
11486;SDS011;10510;47.942;9.442;2023-04-03T03:23:21;6.30;;;3.55;;
11486;SDS011;10510;47.942;9.442;2023-04-03T03:25:22;8.20;;;4.30;;
11486;SDS011;10510;47.942;9.442;2023-04-03T03:27:22;8.15;;;4.40;;
11486;SDS011;10510;47.942;9.442;2023-04-03T03:29:23;8.32;;;5.05;;
11486;SDS011;10510;47.942;9.442;2023-04-03T03:31:24;9.60;;;4.10;;
11486;SDS011;10510;47.942;9.442;2023-04-03T03:33:24;6.70;;;4.05;;
11486;SDS011;10510;47.942;9.442;2023-04-03T03:35:26;10.43;;;3.88;;
11486;SDS011;10510;47.942;9.442;2023-04-03T03:37:26;8.48;;;3.85;;
11486;SDS011;10510;47.942;9.442;2023-04-03T03:39:26;6.40;;;4.07;;
11486;SDS011;10510;47.942;9.442;2023-04-03T03:41:27;6.57;;;4.22;;
11486;SDS011;10510;47.942;9.442;2023-04-03T03:43:27;6.88;;;3.95;;
11486;SDS011;10510;47.942;9.442;2023-04-03T03:45:27;8.98;;;4.40;;
11486;SDS011;10510;47.942;9.442;2023-04-03T03:47:28;6.65;;;4.10;;
11486;SDS011;10510;47.942;9.442;2023-04-03T03:49:28;11.38;;;4.15;;
11486;SDS011;10510;47.942;9.442;2023-04-03T03:51:28;8.43;;;4.68;;
11486;SDS011;10510;47.942;9.442;2023-04-03T03:53:28;6.78;;;4.40;;
11486;SDS011;10510;47.942;9.442;2023-04-03T03:55:29;6.35;;;3.83;;
11486;SDS011;10510;47.942;9.442;2023-04-03T03:57:29;9.32;;;4.60;;
11486;SDS011;10510;47.942;9.442;2023-04-03T03:59:30;6.57;;;3.92;;
11486;SDS011;10510;47.942;9.442;2023-04-03T04:01:30;9.70;;;3.53;;
11486;SDS011;10510;47.942;9.442;2023-04-03T04:03:31;9.05;;;4.07;;
11486;SDS011;10510;47.942;9.442;2023-04-03T04:05:32;6.88;;;3.53;;
11486;SDS011;10510;47.942;9.442;2023-04-03T04:07:33;6.47;;;3.60;;
11486;SDS011;10510;47.942;9.442;2023-04-03T04:09:33;5.53;;;3.63;;
11486;SDS011;10510;47.942;9.442;2023-04-03T04:11:33;7.45;;;3.90;;
11486;SDS011;10510;47.942;9.442;2023-04-03T04:13:34;5.90;;;3.83;;
11486;SDS011;10510;47.942;9.442;2023-04-03T04:15:34;8.95;;;3.70;;
11486;SDS011;10510;47.942;9.442;2023-04-03T04:17:35;6.22;;;3.85;;
11486;SDS011;10510;47.942;9.442;2023-04-03T04:19:35;11.90;;;3.45;;
11486;SDS011;10510;47.942;9.442;2023-04-03T04:21:36;4.63;;;3.10;;
11486;SDS011;10510;47.942;9.442;2023-04-03T04:23:36;8.73;;;3.85;;
11486;SDS011;10510;47.942;9.442;2023-04-03T04:25:36;5.35;;;3.08;;
11486;SDS011;10510;47.942;9.442;2023-04-03T04:27:36;6.18;;;3.53;;
11486;SDS011;10510;47.942;9.442;2023-04-03T04:29:37;7.25;;;3.95;;
11486;SDS011;10510;47.942;9.442;2023-04-03T04:31:38;9.00;;;3.70;;
11486;SDS011;10510;47.942;9.442;2023-04-03T04:33:38;4.65;;;3.25;;
11486;SDS011;10510;47.942;9.442;2023-04-03T04:35:38;6.07;;;3.53;;
11486;SDS011;10510;47.942;9.442;2023-04-03T04:37:38;7.00;;;3.63;;
11486;SDS011;10510;47.942;9.442;2023-04-03T04:39:38;7.93;;;4.05;;
11486;SDS011;10510;47.942;9.442;2023-04-03T04:41:39;5.50;;;3.60;;
11486;SDS011;10510;47.942;9.442;2023-04-03T04:43:39;7.50;;;3.83;;
11486;SDS011;10510;47.942;9.442;2023-04-03T04:45:40;6.32;;;3.35;;
11486;SDS011;10510;47.942;9.442;2023-04-03T04:47:41;4.63;;;3.38;;
11486;SDS011;10510;47.942;9.442;2023-04-03T04:49:41;13.00;;;3.53;;
11486;SDS011;10510;47.942;9.442;2023-04-03T04:51:41;9.68;;;3.63;;
11486;SDS011;10510;47.942;9.442;2023-04-03T04:53:42;5.93;;;3.40;;
11486;SDS011;10510;47.942;9.442;2023-04-03T04:55:42;10.75;;;3.55;;
11486;SDS011;10510;47.942;9.442;2023-04-03T04:57:43;4.93;;;2.78;;
11486;SDS011;10510;47.942;9.442;2023-04-03T04:59:43;5.85;;;3.28;;
11486;SDS011;10510;47.942;9.442;2023-04-03T05:01:43;5.90;;;4.03;;
11486;SDS011;10510;47.942;9.442;2023-04-03T05:03:44;6.03;;;3.40;;
11486;SDS011;10510;47.942;9.442;2023-04-03T05:05:44;4.88;;;3.35;;
11486;SDS011;10510;47.942;9.442;2023-04-03T05:07:45;5.18;;;3.22;;
11486;SDS011;10510;47.942;9.442;2023-04-03T05:09:45;6.13;;;3.15;;
11486;SDS011;10510;47.942;9.442;2023-04-03T05:11:45;5.13;;;3.40;;
11486;SDS011;10510;47.942;9.442;2023-04-03T05:13:46;7.85;;;3.72;;
11486;SDS011;10510;47.942;9.442;2023-04-03T05:15:46;7.18;;;3.58;;
11486;SDS011;10510;47.942;9.442;2023-04-03T05:17:46;10.95;;;3.85;;
11486;SDS011;10510;47.942;9.442;2023-04-03T05:19:47;6.97;;;3.53;;
11486;SDS011;10510;47.942;9.442;2023-04-03T05:21:47;5.82;;;3.25;;
11486;SDS011;10510;47.942;9.442;2023-04-03T05:23:48;6.30;;;3.70;;
11486;SDS011;10510;47.942;9.442;2023-04-03T05:25:48;8.02;;;4.88;;
11486;SDS011;10510;47.942;9.442;2023-04-03T05:27:49;7.80;;;3.50;;
11486;SDS011;10510;47.942;9.442;2023-04-03T05:29:50;6.20;;;3.67;;
11486;SDS011;10510;47.942;9.442;2023-04-03T05:31:50;18.83;;;3.63;;
11486;SDS011;10510;47.942;9.442;2023-04-03T05:33:50;5.63;;;3.28;;
11486;SDS011;10510;47.942;9.442;2023-04-03T05:35:51;9.48;;;3.28;;
11486;SDS011;10510;47.942;9.442;2023-04-03T05:37:52;8.43;;;3.40;;
11486;SDS011;10510;47.942;9.442;2023-04-03T05:39:52;6.20;;;3.20;;
11486;SDS011;10510;47.942;9.442;2023-04-03T05:41:53;5.20;;;3.17;;
11486;SDS011;10510;47.942;9.442;2023-04-03T05:43:53;9.52;;;3.63;;
11486;SDS011;10510;47.942;9.442;2023-04-03T05:45:53;7.60;;;3.35;;
11486;SDS011;10510;47.942;9.442;2023-04-03T05:47:53;7.43;;;4.15;;
11486;SDS011;10510;47.942;9.442;2023-04-03T05:49:54;4.38;;;2.58;;
11486;SDS011;10510;47.942;9.442;2023-04-03T05:51:54;6.70;;;3.50;;
11486;SDS011;10510;47.942;9.442;2023-04-03T05:53:56;7.13;;;3.38;;
11486;SDS011;10510;47.942;9.442;2023-04-03T05:56:02;9.32;;;4.20;;
11486;SDS011;10510;47.942;9.442;2023-04-03T05:58:03;6.53;;;3.65;;
11486;SDS011;10510;47.942;9.442;2023-04-03T06:00:07;10.05;;;3.58;;
11486;SDS011;10510;47.942;9.442;2023-04-03T06:02:13;7.15;;;4.20;;
11486;SDS011;10510;47.942;9.442;2023-04-03T06:04:16;6.00;;;3.72;;
11486;SDS011;10510;47.942;9.442;2023-04-03T06:06:16;6.43;;;3.53;;
11486;SDS011;10510;47.942;9.442;2023-04-03T06:08:16;7.63;;;3.95;;
11486;SDS011;10510;47.942;9.442;2023-04-03T06:10:16;6.05;;;3.35;;
11486;SDS011;10510;47.942;9.442;2023-04-03T06:12:17;7.88;;;3.67;;
11486;SDS011;10510;47.942;9.442;2023-04-03T06:14:18;5.45;;;3.28;;
11486;SDS011;10510;47.942;9.442;2023-04-03T06:16:19;7.65;;;3.47;;
11486;SDS011;10510;47.942;9.442;2023-04-03T06:18:19;8.38;;;3.45;;
11486;SDS011;10510;47.942;9.442;2023-04-03T06:20:20;9.60;;;3.83;;
11486;SDS011;10510;47.942;9.442;2023-04-03T06:22:20;7.10;;;3.45;;
11486;SDS011;10510;47.942;9.442;2023-04-03T06:24:21;5.88;;;3.42;;
11486;SDS011;10510;47.942;9.442;2023-04-03T06:26:23;5.20;;;2.72;;
11486;SDS011;10510;47.942;9.442;2023-04-03T06:28:24;6.40;;;3.35;;
11486;SDS011;10510;47.942;9.442;2023-04-03T06:30:24;6.03;;;3.22;;
11486;SDS011;10510;47.942;9.442;2023-04-03T06:32:25;5.75;;;3.40;;
11486;SDS011;10510;47.942;9.442;2023-04-03T06:34:26;8.27;;;3.08;;
11486;SDS011;10510;47.942;9.442;2023-04-03T06:36:26;5.63;;;3.45;;
11486;SDS011;10510;47.942;9.442;2023-04-03T06:38:26;5.65;;;3.78;;
11486;SDS011;10510;47.942;9.442;2023-04-03T06:40:27;7.63;;;4.07;;
11486;SDS011;10510;47.942;9.442;2023-04-03T06:42:27;6.78;;;3.00;;
11486;SDS011;10510;47.942;9.442;2023-04-03T06:44:27;7.35;;;4.93;;
11486;SDS011;10510;47.942;9.442;2023-04-03T06:46:27;9.38;;;3.70;;
11486;SDS011;10510;47.942;9.442;2023-04-03T06:48:28;5.55;;;3.25;;
11486;SDS011;10510;47.942;9.442;2023-04-03T06:50:28;5.15;;;3.33;;
11486;SDS011;10510;47.942;9.442;2023-04-03T06:52:29;5.82;;;3.20;;
11486;SDS011;10510;47.942;9.442;2023-04-03T06:54:29;9.75;;;4.45;;
11486;SDS011;10510;47.942;9.442;2023-04-03T06:56:30;6.50;;;3.38;;
11486;SDS011;10510;47.942;9.442;2023-04-03T06:58:30;6.90;;;3.40;;
11486;SDS011;10510;47.942;9.442;2023-04-03T07:00:30;7.20;;;4.03;;
11486;SDS011;10510;47.942;9.442;2023-04-03T07:02:31;5.82;;;3.80;;
11486;SDS011;10510;47.942;9.442;2023-04-03T07:04:31;10.70;;;7.25;;
11486;SDS011;10510;47.942;9.442;2023-04-03T07:06:31;6.80;;;3.58;;
11486;SDS011;10510;47.942;9.442;2023-04-03T07:08:33;18.05;;;15.27;;
11486;SDS011;10510;47.942;9.442;2023-04-03T07:10:34;5.75;;;3.80;;
11486;SDS011;10510;47.942;9.442;2023-04-03T07:12:34;7.95;;;3.75;;
11486;SDS011;10510;47.942;9.442;2023-04-03T07:14:35;6.88;;;3.78;;
11486;SDS011;10510;47.942;9.442;2023-04-03T07:16:35;5.18;;;3.55;;
11486;SDS011;10510;47.942;9.442;2023-04-03T07:18:35;7.10;;;3.88;;
11486;SDS011;10510;47.942;9.442;2023-04-03T07:20:36;7.70;;;4.00;;
11486;SDS011;10510;47.942;9.442;2023-04-03T07:22:36;7.80;;;4.13;;
11486;SDS011;10510;47.942;9.442;2023-04-03T07:24:36;6.68;;;3.97;;
11486;SDS011;10510;47.942;9.442;2023-04-03T07:26:37;8.93;;;4.43;;
11486;SDS011;10510;47.942;9.442;2023-04-03T07:28:37;5.93;;;3.83;;
11486;SDS011;10510;47.942;9.442;2023-04-03T07:30:46;6.43;;;4.03;;
11486;SDS011;10510;47.942;9.442;2023-04-03T07:32:51;7.15;;;3.85;;
11486;SDS011;10510;47.942;9.442;2023-04-03T07:34:51;6.57;;;4.18;;
11486;SDS011;10510;47.942;9.442;2023-04-03T07:36:51;9.85;;;4.43;;
11486;SDS011;10510;47.942;9.442;2023-04-03T07:38:52;7.88;;;4.07;;
11486;SDS011;10510;47.942;9.442;2023-04-03T07:40:52;8.27;;;3.65;;
11486;SDS011;10510;47.942;9.442;2023-04-03T07:42:52;12.05;;;5.25;;
11486;SDS011;10510;47.942;9.442;2023-04-03T07:44:53;7.47;;;4.28;;
11486;SDS011;10510;47.942;9.442;2023-04-03T07:46:54;7.15;;;3.75;;
11486;SDS011;10510;47.942;9.442;2023-04-03T07:48:55;7.68;;;3.90;;
11486;SDS011;10510;47.942;9.442;2023-04-03T07:50:59;7.40;;;3.75;;
11486;SDS011;10510;47.942;9.442;2023-04-03T07:53:00;7.55;;;3.47;;
11486;SDS011;10510;47.942;9.442;2023-04-03T07:55:01;10.00;;;4.10;;
11486;SDS011;10510;47.942;9.442;2023-04-03T07:57:01;13.30;;;4.20;;
11486;SDS011;10510;47.942;9.442;2023-04-03T07:59:01;7.63;;;4.93;;
11486;SDS011;10510;47.942;9.442;2023-04-03T08:01:02;5.93;;;3.78;;
11486;SDS011;10510;47.942;9.442;2023-04-03T08:03:03;6.55;;;3.63;;
11486;SDS011;10510;47.942;9.442;2023-04-03T08:05:03;7.50;;;3.92;;
11486;SDS011;10510;47.942;9.442;2023-04-03T08:07:04;6.30;;;3.58;;
11486;SDS011;10510;47.942;9.442;2023-04-03T08:09:05;7.18;;;3.88;;
11486;SDS011;10510;47.942;9.442;2023-04-03T08:11:05;8.45;;;3.78;;
11486;SDS011;10510;47.942;9.442;2023-04-03T08:13:08;6.90;;;3.20;;
11486;SDS011;10510;47.942;9.442;2023-04-03T08:15:09;7.03;;;3.67;;
11486;SDS011;10510;47.942;9.442;2023-04-03T08:17:09;10.38;;;3.97;;
11486;SDS011;10510;47.942;9.442;2023-04-03T08:19:11;6.97;;;4.00;;
11486;SDS011;10510;47.942;9.442;2023-04-03T08:21:13;5.97;;;3.85;;
11486;SDS011;10510;47.942;9.442;2023-04-03T08:23:13;7.85;;;4.18;;
11486;SDS011;10510;47.942;9.442;2023-04-03T08:25:15;7.63;;;4.15;;
11486;SDS011;10510;47.942;9.442;2023-04-03T08:27:15;11.13;;;5.28;;
11486;SDS011;10510;47.942;9.442;2023-04-03T08:29:16;11.40;;;4.80;;
11486;SDS011;10510;47.942;9.442;2023-04-03T08:31:17;10.02;;;5.00;;
11486;SDS011;10510;47.942;9.442;2023-04-03T08:33:19;6.05;;;3.88;;
11486;SDS011;10510;47.942;9.442;2023-04-03T08:35:20;6.53;;;4.13;;
11486;SDS011;10510;47.942;9.442;2023-04-03T08:37:20;6.18;;;3.20;;
11486;SDS011;10510;47.942;9.442;2023-04-03T08:39:20;11.35;;;4.00;;
11486;SDS011;10510;47.942;9.442;2023-04-03T08:41:29;9.63;;;4.18;;
11486;SDS011;10510;47.942;9.442;2023-04-03T08:43:42;6.35;;;3.50;;
11486;SDS011;10510;47.942;9.442;2023-04-03T08:45:57;6.03;;;3.75;;
11486;SDS011;10510;47.942;9.442;2023-04-03T08:50:07;5.15;;;3.70;;
11486;SDS011;10510;47.942;9.442;2023-04-03T08:52:14;5.68;;;3.42;;
11486;SDS011;10510;47.942;9.442;2023-04-03T08:54:21;5.63;;;3.30;;
11486;SDS011;10510;47.942;9.442;2023-04-03T08:56:33;8.85;;;3.53;;
11486;SDS011;10510;47.942;9.442;2023-04-03T09:00:56;6.25;;;3.45;;
11486;SDS011;10510;47.942;9.442;2023-04-03T09:05:01;6.32;;;3.35;;
11486;SDS011;10510;47.942;9.442;2023-04-03T09:07:07;7.75;;;4.80;;
11486;SDS011;10510;47.942;9.442;2023-04-03T09:09:14;8.02;;;4.18;;
11486;SDS011;10510;47.942;9.442;2023-04-03T09:11:27;6.93;;;3.90;;
11486;SDS011;10510;47.942;9.442;2023-04-03T09:15:46;5.03;;;3.90;;
11486;SDS011;10510;47.942;9.442;2023-04-03T09:17:49;5.55;;;3.55;;
11486;SDS011;10510;47.942;9.442;2023-04-03T09:20:09;7.80;;;4.53;;
11486;SDS011;10510;47.942;9.442;2023-04-03T09:22:21;7.63;;;3.67;;
11486;SDS011;10510;47.942;9.442;2023-04-03T09:24:24;5.38;;;3.38;;
11486;SDS011;10510;47.942;9.442;2023-04-03T09:26:30;8.43;;;4.25;;
11486;SDS011;10510;47.942;9.442;2023-04-03T09:28:37;6.45;;;4.50;;
11486;SDS011;10510;47.942;9.442;2023-04-03T09:30:39;11.77;;;4.35;;
11486;SDS011;10510;47.942;9.442;2023-04-03T09:32:39;8.15;;;4.78;;
11486;SDS011;10510;47.942;9.442;2023-04-03T09:34:39;5.82;;;3.60;;
11486;SDS011;10510;47.942;9.442;2023-04-03T09:38:56;6.45;;;3.95;;
11486;SDS011;10510;47.942;9.442;2023-04-03T09:41:05;7.75;;;4.00;;
11486;SDS011;10510;47.942;9.442;2023-04-03T09:45:24;10.27;;;4.28;;
11486;SDS011;10510;47.942;9.442;2023-04-03T09:47:28;7.05;;;4.03;;
11486;SDS011;10510;47.942;9.442;2023-04-03T09:49:30;10.07;;;3.95;;
11486;SDS011;10510;47.942;9.442;2023-04-03T09:51:31;7.78;;;3.78;;
11486;SDS011;10510;47.942;9.442;2023-04-03T09:53:38;5.43;;;3.40;;
11486;SDS011;10510;47.942;9.442;2023-04-03T09:55:42;5.45;;;4.07;;
11486;SDS011;10510;47.942;9.442;2023-04-03T09:57:45;8.50;;;4.15;;
11486;SDS011;10510;47.942;9.442;2023-04-03T09:59:47;6.03;;;3.97;;
11486;SDS011;10510;47.942;9.442;2023-04-03T10:02:02;7.22;;;3.25;;
11486;SDS011;10510;47.942;9.442;2023-04-03T10:04:19;7.03;;;4.20;;
11486;SDS011;10510;47.942;9.442;2023-04-03T10:06:23;8.38;;;3.85;;
11486;SDS011;10510;47.942;9.442;2023-04-03T10:08:25;6.68;;;3.60;;
11486;SDS011;10510;47.942;9.442;2023-04-03T10:10:30;5.57;;;3.55;;
11486;SDS011;10510;47.942;9.442;2023-04-03T10:12:31;5.50;;;3.72;;
11486;SDS011;10510;47.942;9.442;2023-04-03T10:14:31;6.82;;;3.67;;
11486;SDS011;10510;47.942;9.442;2023-04-03T10:16:38;7.18;;;3.45;;
11486;SDS011;10510;47.942;9.442;2023-04-03T10:20:56;7.47;;;2.90;;
11486;SDS011;10510;47.942;9.442;2023-04-03T10:27:37;6.43;;;3.70;;
11486;SDS011;10510;47.942;9.442;2023-04-03T10:32:35;3.20;;;2.67;;
11486;SDS011;10510;47.942;9.442;2023-04-03T10:34:45;5.47;;;3.42;;
11486;SDS011;10510;47.942;9.442;2023-04-03T10:36:58;5.43;;;3.13;;
11486;SDS011;10510;47.942;9.442;2023-04-03T10:39:21;6.70;;;2.80;;
11486;SDS011;10510;47.942;9.442;2023-04-03T10:41:34;4.93;;;3.10;;
11486;SDS011;10510;47.942;9.442;2023-04-03T10:46:08;5.65;;;3.28;;
11486;SDS011;10510;47.942;9.442;2023-04-03T10:48:32;6.72;;;3.08;;
11486;SDS011;10510;47.942;9.442;2023-04-03T10:53:01;5.25;;;3.40;;
11486;SDS011;10510;47.942;9.442;2023-04-03T10:57:26;4.47;;;2.72;;
11486;SDS011;10510;47.942;9.442;2023-04-03T10:59:38;6.43;;;3.83;;
11486;SDS011;10510;47.942;9.442;2023-04-03T11:01:41;4.43;;;2.78;;
11486;SDS011;10510;47.942;9.442;2023-04-03T11:03:45;5.45;;;3.75;;
11486;SDS011;10510;47.942;9.442;2023-04-03T11:05:49;3.58;;;2.67;;
11486;SDS011;10510;47.942;9.442;2023-04-03T11:07:53;5.15;;;3.10;;
11486;SDS011;10510;47.942;9.442;2023-04-03T11:09:58;5.10;;;3.03;;
11486;SDS011;10510;47.942;9.442;2023-04-03T11:12:04;3.90;;;2.88;;
11486;SDS011;10510;47.942;9.442;2023-04-03T11:14:23;7.65;;;4.03;;
11486;SDS011;10510;47.942;9.442;2023-04-03T11:16:28;6.50;;;3.67;;
11486;SDS011;10510;47.942;9.442;2023-04-03T11:20:53;7.40;;;3.15;;
11486;SDS011;10510;47.942;9.442;2023-04-03T11:23:03;5.50;;;2.58;;
11486;SDS011;10510;47.942;9.442;2023-04-03T11:25:14;4.72;;;2.60;;
11486;SDS011;10510;47.942;9.442;2023-04-03T11:27:22;4.47;;;2.85;;
11486;SDS011;10510;47.942;9.442;2023-04-03T11:29:24;4.53;;;2.72;;
11486;SDS011;10510;47.942;9.442;2023-04-03T11:31:33;3.03;;;2.33;;
11486;SDS011;10510;47.942;9.442;2023-04-03T11:33:56;5.30;;;2.88;;
11486;SDS011;10510;47.942;9.442;2023-04-03T11:36:10;3.47;;;2.45;;
11486;SDS011;10510;47.942;9.442;2023-04-03T11:38:20;2.78;;;2.30;;
11486;SDS011;10510;47.942;9.442;2023-04-03T11:40:29;3.55;;;2.42;;
11486;SDS011;10510;47.942;9.442;2023-04-03T11:42:37;3.75;;;2.65;;
11486;SDS011;10510;47.942;9.442;2023-04-03T11:44:39;3.85;;;2.38;;
11486;SDS011;10510;47.942;9.442;2023-04-03T11:46:49;4.18;;;2.50;;
11486;SDS011;10510;47.942;9.442;2023-04-03T11:48:51;4.45;;;2.50;;
11486;SDS011;10510;47.942;9.442;2023-04-03T11:50:54;4.18;;;2.75;;
11486;SDS011;10510;47.942;9.442;2023-04-03T11:52:59;3.80;;;2.33;;
11486;SDS011;10510;47.942;9.442;2023-04-03T11:59:45;3.67;;;2.35;;
11486;SDS011;10510;47.942;9.442;2023-04-03T12:05:51;3.83;;;2.75;;
11486;SDS011;10510;47.942;9.442;2023-04-03T12:10:27;3.80;;;2.20;;
11486;SDS011;10510;47.942;9.442;2023-04-03T12:14:29;5.90;;;3.20;;
11486;SDS011;10510;47.942;9.442;2023-04-03T12:16:31;3.53;;;2.20;;
11486;SDS011;10510;47.942;9.442;2023-04-03T12:23:21;4.13;;;3.03;;
11486;SDS011;10510;47.942;9.442;2023-04-03T12:27:59;3.88;;;2.58;;
11486;SDS011;10510;47.942;9.442;2023-04-03T12:37:00;3.20;;;2.10;;
11486;SDS011;10510;47.942;9.442;2023-04-03T12:43:50;6.05;;;2.92;;
11486;SDS011;10510;47.942;9.442;2023-04-03T12:46:18;4.78;;;2.78;;
11486;SDS011;10510;47.942;9.442;2023-04-03T12:48:22;4.25;;;2.70;;
11486;SDS011;10510;47.942;9.442;2023-04-03T12:50:30;4.55;;;2.80;;
11486;SDS011;10510;47.942;9.442;2023-04-03T12:52:35;2.58;;;2.30;;
11486;SDS011;10510;47.942;9.442;2023-04-03T12:54:40;8.95;;;3.72;;
11486;SDS011;10510;47.942;9.442;2023-04-03T12:56:42;3.72;;;2.72;;
11486;SDS011;10510;47.942;9.442;2023-04-03T12:58:43;10.93;;;3.83;;
11486;SDS011;10510;47.942;9.442;2023-04-03T13:00:43;17.45;;;9.07;;
11486;SDS011;10510;47.942;9.442;2023-04-03T13:02:43;8.77;;;5.57;;
11486;SDS011;10510;47.942;9.442;2023-04-03T13:04:45;5.13;;;3.00;;
11486;SDS011;10510;47.942;9.442;2023-04-03T13:06:47;4.28;;;3.25;;
11486;SDS011;10510;47.942;9.442;2023-04-03T13:08:51;24.73;;;9.45;;
11486;SDS011;10510;47.942;9.442;2023-04-03T13:10:58;5.72;;;3.03;;
11486;SDS011;10510;47.942;9.442;2023-04-03T13:13:07;8.48;;;4.00;;
11486;SDS011;10510;47.942;9.442;2023-04-03T13:15:16;3.85;;;2.70;;
11486;SDS011;10510;47.942;9.442;2023-04-03T13:17:22;4.93;;;3.00;;
11486;SDS011;10510;47.942;9.442;2023-04-03T13:19:24;10.70;;;5.70;;
11486;SDS011;10510;47.942;9.442;2023-04-03T13:21:26;9.93;;;5.47;;
11486;SDS011;10510;47.942;9.442;2023-04-03T13:23:28;8.48;;;4.53;;
11486;SDS011;10510;47.942;9.442;2023-04-03T13:25:33;14.75;;;7.30;;